createdAt,value
2022-10-17T00:00:33.416Z,101677.00
2022-10-17T00:03:00.428Z,101667.22
2022-10-17T00:05:26.945Z,101662.81
2022-10-17T00:07:53.720Z,101670.06
2022-10-17T00:10:21.068Z,101655.75
2022-10-17T00:12:48.025Z,101657.59
2022-10-17T00:15:17.488Z,101659.44
2022-10-17T00:17:44.013Z,101658.59
2022-10-17T00:20:11.051Z,101657.88
2022-10-17T00:22:37.582Z,101660.56
2022-10-17T00:25:04.424Z,101663.25
2022-10-17T00:27:31.011Z,101661.59
2022-10-17T00:29:57.564Z,101661.59
2022-10-17T00:32:24.002Z,101653.50
2022-10-17T00:34:50.468Z,101652.66
2022-10-17T00:37:16.976Z,101658.03
2022-10-17T00:39:43.505Z,101648.28
2022-10-17T00:42:13.103Z,101652.78
2022-10-17T00:44:42.229Z,101656.47
2022-10-17T00:47:14.009Z,101653.66
2022-10-17T00:49:40.956Z,101656.47
2022-10-17T00:52:13.363Z,101654.81
2022-10-17T00:54:44.263Z,101646.88
2022-10-17T00:57:11.571Z,101655.81
2022-10-17T00:59:41.738Z,101650.41
2022-10-17T01:02:17.314Z,101644.19
2022-10-17T01:04:46.616Z,101636.25
2022-10-17T01:07:13.280Z,101639.78
2022-10-17T01:09:41.298Z,101638.09
2022-10-17T01:12:18.881Z,101642.47
2022-10-17T01:15:12.011Z,101631.03
2022-10-17T01:17:52.924Z,101621.09
2022-10-17T01:20:34.400Z,101624.78
2022-10-17T01:23:29.038Z,101622.22
2022-10-17T01:26:20.119Z,101627.47
2022-10-17T01:29:15.968Z,101624.06
2022-10-17T01:31:49.725Z,101628.63
2022-10-17T01:34:20.874Z,101627.78
2022-10-17T01:36:56.539Z,101627.78
2022-10-17T01:39:45.584Z,101628.78
2022-10-17T01:42:23.656Z,101616.28
2022-10-17T01:44:58.675Z,101617.31
2022-10-17T01:47:30.324Z,101600.31
2022-10-17T01:50:02.887Z,101593.06
2022-10-17T01:52:46.775Z,101583.31
2022-10-17T01:55:22.642Z,101569.97
2022-10-17T01:57:57.446Z,101570.53
2022-10-17T02:00:26.540Z,101582.31
2022-10-17T02:02:58.695Z,101580.63
2022-10-17T02:05:30.979Z,101574.38
2022-10-17T02:07:57.580Z,101570.84
2022-10-17T02:10:37.374Z,101573.69
2022-10-17T02:13:20.051Z,101573.69
2022-10-17T02:16:05.211Z,101576.38
2022-10-17T02:19:23.268Z,101564.06
2022-10-17T02:22:08.144Z,101563.91
2022-10-17T02:25:03.556Z,101564.91
2022-10-17T02:27:50.819Z,101559.66
2022-10-17T02:30:54.931Z,101547.06
2022-10-17T02:33:31.936Z,101547.06
2022-10-17T02:36:04.293Z,101538.13
2022-10-17T02:38:32.832Z,101545.38
2022-10-17T02:40:59.574Z,101538.13
2022-10-17T02:43:26.213Z,101551.59
2022-10-17T02:45:52.866Z,101551.75
2022-10-17T02:48:25.758Z,101550.91
2022-10-17T02:51:18.029Z,101547.50
2022-10-17T02:53:55.379Z,101550.91
2022-10-17T02:56:22.426Z,101558.28
2022-10-17T02:58:54.397Z,101554.75
2022-10-17T03:01:21.807Z,101552.91
2022-10-17T03:03:48.402Z,101556.44
2022-10-17T03:06:15.527Z,101548.50
2022-10-17T03:08:41.983Z,101551.38
2022-10-17T03:11:09.035Z,101553.91
2022-10-17T03:13:38.954Z,101565.50
2022-10-17T03:16:06.578Z,101557.59
2022-10-17T03:18:33.101Z,101562.81
2022-10-17T03:20:59.575Z,101563.81
2022-10-17T03:23:26.024Z,101571.06
2022-10-17T03:25:52.497Z,101563.97
2022-10-17T03:28:18.940Z,101568.34
2022-10-17T03:30:45.378Z,101574.75
2022-10-17T03:33:11.837Z,101573.75
2022-10-17T03:35:40.233Z,101574.59
2022-10-17T03:38:06.846Z,101575.59
2022-10-17T03:40:33.326Z,101573.75
2022-10-17T03:42:59.789Z,101568.34
2022-10-17T03:45:26.248Z,101576.44
2022-10-17T03:47:52.731Z,101576.44
2022-10-17T03:50:19.187Z,101579.13
2022-10-17T03:52:49.539Z,101573.75
2022-10-17T03:55:16.593Z,101568.34
2022-10-17T03:57:45.439Z,101563.09
2022-10-17T04:00:12.746Z,101561.28
2022-10-17T04:02:39.281Z,101572.06
2022-10-17T04:05:06.251Z,101564.94
2022-10-17T04:07:32.719Z,101569.38
2022-10-17T04:09:59.160Z,101570.34
2022-10-17T04:12:25.614Z,101570.34
2022-10-17T04:14:52.114Z,101578.41
2022-10-17T04:17:18.624Z,101591.03
2022-10-17T04:19:45.058Z,101584.78
2022-10-17T04:22:11.552Z,101574.03
2022-10-17T04:24:38.025Z,101580.25
2022-10-17T04:27:04.487Z,101581.09
2022-10-17T04:29:31.320Z,101579.41
2022-10-17T04:31:57.794Z,101597.41
2022-10-17T04:34:24.336Z,101591.03
2022-10-17T04:36:51.887Z,101594.72
2022-10-17T04:39:18.618Z,101592.88
2022-10-17T04:41:45.102Z,101593.88
2022-10-17T04:44:11.967Z,101598.25
2022-10-17T04:46:38.494Z,101593.88
2022-10-17T04:49:05.054Z,101600.09
2022-10-17T04:51:31.507Z,101601.94
2022-10-17T04:53:57.947Z,101603.63
2022-10-17T04:56:25.391Z,101611.88
2022-10-17T04:58:52.116Z,101615.25
2022-10-17T05:01:22.730Z,101617.09
2022-10-17T05:03:50.056Z,101615.41
2022-10-17T05:06:21.968Z,101618.09
2022-10-17T05:08:48.837Z,101614.56
2022-10-17T05:11:18.177Z,101616.41
2022-10-17T05:13:44.839Z,101609.19
2022-10-17T05:16:11.372Z,101611.03
2022-10-17T05:18:37.839Z,101608.34
2022-10-17T05:21:04.653Z,101602.94
2022-10-17T05:23:31.106Z,101610.03
2022-10-17T05:25:57.561Z,101619.94
2022-10-17T05:28:24.225Z,101630.72
2022-10-17T05:30:50.716Z,101628.00
2022-10-17T05:33:17.216Z,101636.94
2022-10-17T05:35:43.710Z,101642.31
2022-10-17T05:38:10.257Z,101639.63
2022-10-17T05:40:38.488Z,101627.16
2022-10-17T05:43:05.095Z,101636.09
2022-10-17T05:45:31.648Z,101628.00
2022-10-17T05:47:58.126Z,101620.06
2022-10-17T05:50:25.198Z,101614.69
2022-10-17T05:52:55.146Z,101620.06
2022-10-17T05:55:22.208Z,101617.38
2022-10-17T05:57:49.456Z,101612.84
2022-10-17T06:00:16.000Z,101627.16
2022-10-17T06:02:45.816Z,101634.38
2022-10-17T06:05:14.248Z,101634.38
2022-10-17T06:07:40.910Z,101629.84
2022-10-17T06:10:07.712Z,101634.38
2022-10-17T06:12:34.314Z,101634.38
2022-10-17T06:15:01.015Z,101629.00
2022-10-17T06:17:28.886Z,101636.22
2022-10-17T06:19:55.369Z,101638.91
2022-10-17T06:22:21.817Z,101647.97
2022-10-17T06:24:48.368Z,101638.91
2022-10-17T06:27:14.860Z,101654.22
2022-10-17T06:29:41.454Z,101652.34
2022-10-17T06:32:09.934Z,101647.97
2022-10-17T06:34:39.224Z,101650.50
2022-10-17T06:37:05.706Z,101667.66
2022-10-17T06:39:33.947Z,101676.56
2022-10-17T06:42:01.499Z,101681.00
2022-10-17T06:44:32.794Z,101691.75
2022-10-17T06:47:00.716Z,101692.59
2022-10-17T06:49:27.977Z,101692.59
2022-10-17T06:51:54.833Z,101699.81
2022-10-17T06:54:21.333Z,101704.34
2022-10-17T06:56:47.808Z,101715.97
2022-10-17T06:59:15.526Z,101720.47
2022-10-17T07:01:46.052Z,101718.66
2022-10-17T07:04:13.830Z,101703.38
2022-10-17T07:06:40.545Z,101715.97
2022-10-17T07:09:07.092Z,101706.91
2022-10-17T07:11:35.085Z,101708.75
2022-10-17T07:14:02.392Z,101716.81
2022-10-17T07:16:29.168Z,101717.66
2022-10-17T07:18:56.080Z,101731.13
2022-10-17T07:21:22.558Z,101727.59
2022-10-17T07:23:49.203Z,101715.97
2022-10-17T07:26:17.545Z,101723.88
2022-10-17T07:28:46.052Z,101728.44
2022-10-17T07:31:18.338Z,101752.66
2022-10-17T07:36:13.324Z,101769.63
2022-10-17T07:38:39.929Z,101769.63
2022-10-17T07:41:08.879Z,101778.56
2022-10-17T07:43:36.704Z,101791.16
2022-10-17T07:46:04.503Z,101799.25
2022-10-17T07:48:31.210Z,101827.84
2022-10-17T07:50:58.138Z,101835.91
2022-10-17T07:53:24.657Z,101843.00
2022-10-17T07:55:51.559Z,101851.22
2022-10-17T07:58:18.221Z,101871.75
2022-10-17T08:00:48.348Z,101882.53
2022-10-17T08:03:15.191Z,101899.66
2022-10-17T08:05:41.828Z,101903.19
2022-10-17T08:08:08.327Z,101905.91
2022-10-17T08:10:34.794Z,101913.13
2022-10-17T08:13:01.917Z,101911.28
2022-10-17T08:15:31.718Z,101896.97
2022-10-17T08:17:59.544Z,101893.28
2022-10-17T08:20:26.184Z,101890.75
2022-10-17T08:22:53.685Z,101881.81
2022-10-17T08:25:20.726Z,101881.81
2022-10-17T08:27:47.232Z,101872.91
2022-10-17T08:30:13.817Z,101893.44
2022-10-17T08:32:40.428Z,101905.19
2022-10-17T08:35:07.207Z,101913.13
2022-10-17T08:37:33.912Z,101911.44
2022-10-17T08:40:00.613Z,101919.50
2022-10-17T08:42:45.718Z,101915.13
2022-10-17T08:45:29.624Z,101918.50
2022-10-17T08:48:00.169Z,101897.97
2022-10-17T08:51:15.954Z,101870.91
2022-10-17T08:53:53.533Z,101858.28
2022-10-17T08:56:37.017Z,101860.13
2022-10-17T08:59:16.928Z,101862.00
2022-10-17T09:01:47.461Z,101853.91
2022-10-17T09:04:29.280Z,101847.53
2022-10-17T09:07:48.311Z,101860.13
2022-10-17T09:10:41.001Z,101870.78
2022-10-17T09:13:17.334Z,101880.56
2022-10-17T09:16:23.378Z,101909.44
2022-10-17T09:19:10.966Z,101930.00
2022-10-17T09:21:45.931Z,101926.31
2022-10-17T09:24:22.433Z,101928.16
2022-10-17T09:26:50.763Z,101922.63
2022-10-17T09:29:24.581Z,101919.91
2022-10-17T09:32:04.057Z,101904.78
2022-10-17T09:34:32.825Z,101896.69
2022-10-17T09:37:00.887Z,101892.16
2022-10-17T09:39:31.882Z,101893.84
2022-10-17T09:42:00.768Z,101895.69
2022-10-17T09:44:56.849Z,101882.25
2022-10-17T09:47:34.217Z,101888.47
2022-10-17T09:50:02.147Z,101906.31
2022-10-17T09:52:34.996Z,101905.47
2022-10-17T09:55:07.020Z,101917.06
2022-10-17T09:58:06.949Z,101938.75
2022-10-17T10:00:36.848Z,101944.00
2022-10-17T10:03:21.175Z,101963.84
2022-10-17T10:05:59.659Z,101966.53
2022-10-17T10:08:36.748Z,101977.28
2022-10-17T10:11:06.580Z,101990.47
2022-10-17T10:13:35.325Z,101991.59
2022-10-17T10:16:44.537Z,101988.22
2022-10-17T10:19:49.673Z,102003.34
2022-10-17T10:22:18.149Z,102007.75
2022-10-17T10:24:44.971Z,102010.44
2022-10-17T10:27:18.704Z,102014.97
2022-10-17T10:29:52.789Z,102013.28
2022-10-17T10:32:29.004Z,102013.13
2022-10-17T10:35:19.392Z,102023.03
2022-10-17T10:37:50.636Z,102026.59
2022-10-17T10:40:21.343Z,102022.06
2022-10-17T10:42:51.600Z,102024.63
2022-10-17T10:45:43.206Z,102029.00
2022-10-17T10:48:20.540Z,102038.09
2022-10-17T10:50:50.709Z,102048.69
2022-10-17T10:53:35.360Z,102051.38
2022-10-17T10:56:18.858Z,102052.25
2022-10-17T10:59:19.172Z,102046.84
2022-10-17T11:01:57.897Z,102054.94
2022-10-17T11:04:47.450Z,102053.22
2022-10-17T11:07:25.645Z,102047.84
2022-10-17T11:10:03.093Z,102051.53
2022-10-17T11:12:39.308Z,102055.94
2022-10-17T11:15:21.083Z,102060.47
2022-10-17T11:17:58.187Z,102067.69
2022-10-17T11:20:34.878Z,102075.75
2022-10-17T11:23:20.753Z,102083.84
2022-10-17T11:25:56.938Z,102076.75
2022-10-17T11:28:25.430Z,102083.84
2022-10-17T11:30:57.680Z,102091.91
2022-10-17T11:33:51.361Z,102101.94
2022-10-17T11:36:21.603Z,102095.59
2022-10-17T11:39:05.492Z,102098.28
2022-10-17T11:41:40.080Z,102105.50
2022-10-17T11:44:20.871Z,102103.69
2022-10-17T11:46:54.631Z,102111.75
2022-10-17T11:55:25.412Z,102106.38
2022-10-17T11:58:10.664Z,102117.13
2022-10-17T12:01:16.269Z,102118.09
2022-10-17T12:03:57.737Z,102116.13
2022-10-17T12:06:42.906Z,102117.13
2022-10-17T12:09:25.419Z,102118.09
2022-10-17T12:11:57.761Z,102117.84
2022-10-17T12:14:40.968Z,102119.81
2022-10-17T12:17:28.985Z,102126.19
2022-10-17T12:20:24.272Z,102130.72
2022-10-17T12:23:23.127Z,102130.72
2022-10-17T12:25:52.369Z,102139.53
2022-10-17T12:28:46.437Z,102145.88
2022-10-17T12:31:23.230Z,102147.59
2022-10-17T12:33:52.128Z,102156.50
2022-10-17T12:36:18.544Z,102150.41
2022-10-17T12:38:49.934Z,102154.81
2022-10-17T12:41:37.229Z,102151.97
2022-10-17T12:44:26.953Z,102157.38
2022-10-17T12:47:06.142Z,102152.69
2022-10-17T12:49:40.207Z,102162.47
2022-10-17T12:52:12.734Z,102157.09
2022-10-17T12:54:48.078Z,102166.72
2022-10-17T12:58:03.405Z,102165.03
2022-10-17T13:00:29.811Z,102159.50
2022-10-17T13:03:02.327Z,102161.22
2022-10-17T13:05:33.987Z,102163.78
2022-10-17T13:08:03.782Z,102161.94
2022-10-17T13:10:34.909Z,102175.28
2022-10-17T13:13:26.310Z,102175.28
2022-10-17T13:15:54.963Z,102181.25
2022-10-17T13:18:27.195Z,102182.09
2022-10-17T13:21:15.556Z,102187.47
2022-10-17T13:23:42.165Z,102196.25
2022-10-17T13:26:16.239Z,102196.25
2022-10-17T13:28:44.123Z,102204.31
2022-10-17T13:31:34.496Z,102218.78
2022-10-17T13:34:04.559Z,102224.03
2022-10-17T13:36:32.671Z,102222.31
2022-10-17T13:39:04.985Z,102228.56
2022-10-17T13:41:36.520Z,102226.88
2022-10-17T13:44:11.867Z,102232.25
2022-10-17T13:46:39.999Z,102233.09
2022-10-17T13:49:25.857Z,102235.09
2022-10-17T13:51:55.158Z,102234.09
2022-10-17T13:54:40.053Z,102242.16
2022-10-17T13:57:18.365Z,102230.56
2022-10-17T13:59:47.838Z,102236.63
2022-10-17T14:02:17.474Z,102228.56
2022-10-17T14:05:15.166Z,102224.88
2022-10-17T14:08:09.189Z,102229.28
2022-10-17T14:10:34.499Z,102214.84
2022-10-17T14:13:04.220Z,102214.84
2022-10-17T14:15:33.581Z,102228.31
2022-10-17T14:18:07.720Z,102214.84
2022-10-17T14:23:53.470Z,102232.44
2022-10-17T14:26:22.647Z,102225.03
2022-10-17T14:29:21.084Z,102216.84
2022-10-17T14:31:50.627Z,102221.09
2022-10-17T14:34:24.886Z,102231.88
2022-10-17T14:36:53.429Z,102240.69
2022-10-17T14:39:23.490Z,102247.75
2022-10-17T14:41:51.154Z,102252.16
2022-10-17T14:44:25.243Z,102256.69
2022-10-17T14:46:57.678Z,102253.03
2022-10-17T14:49:34.871Z,102248.63
2022-10-17T14:52:24.380Z,102250.47
2022-10-17T14:54:51.231Z,102257.69
2022-10-17T14:57:32.938Z,102252.44
2022-10-17T14:59:59.422Z,102256.00
2022-10-17T15:02:28.145Z,102255.25
2022-10-17T15:04:55.124Z,102261.50
2022-10-17T15:07:22.350Z,102265.06
2022-10-17T15:09:50.977Z,102266.03
2022-10-17T15:12:24.682Z,102274.00
2022-10-17T15:14:51.850Z,102286.72
2022-10-17T15:17:27.822Z,102285.63
2022-10-17T15:19:54.796Z,102288.44
2022-10-17T15:22:21.334Z,102292.13
2022-10-17T15:24:48.013Z,102294.81
2022-10-17T15:27:22.737Z,102293.09
2022-10-17T15:29:51.458Z,102284.19
2022-10-17T15:32:17.928Z,102295.81
2022-10-17T15:34:44.587Z,102301.34
2022-10-17T15:37:22.400Z,102303.16
2022-10-17T15:39:54.275Z,102295.94
2022-10-17T15:42:22.755Z,102305.84
2022-10-17T15:44:50.328Z,102308.81
2022-10-17T15:47:25.052Z,102312.47
2022-10-17T15:49:51.659Z,102319.59
2022-10-17T15:52:18.729Z,102325.94
2022-10-17T15:54:45.449Z,102335.47
2022-10-17T15:57:19.876Z,102326.13
2022-10-17T15:59:47.825Z,102334.69
2022-10-17T16:02:15.787Z,102343.25
2022-10-17T16:04:42.717Z,102337.44
2022-10-17T16:07:09.980Z,102342.56
2022-10-17T16:09:37.365Z,102347.81
2022-10-17T16:12:18.071Z,102340.31
2022-10-17T16:14:45.368Z,102349.84
2022-10-17T16:17:16.342Z,102344.19
2022-10-17T16:19:43.125Z,102346.47
2022-10-17T16:22:26.454Z,102347.91
2022-10-17T16:24:58.523Z,102345.66
2022-10-17T16:27:26.292Z,102357.88
2022-10-17T16:29:52.788Z,102362.16
2022-10-17T16:32:19.327Z,102361.03
2022-10-17T16:34:45.818Z,102349.97
2022-10-17T16:37:12.292Z,102357.78
2022-10-17T16:39:38.827Z,102368.28
2022-10-17T16:42:05.331Z,102369.00
2022-10-17T16:44:31.802Z,102369.88
2022-10-17T16:46:58.426Z,102373.44
2022-10-17T16:49:24.933Z,102376.13
2022-10-17T16:51:51.384Z,102376.13
2022-10-17T16:54:17.862Z,102386.06
2022-10-17T16:56:44.367Z,102381.63
2022-10-17T16:59:12.411Z,102378.09
2022-10-17T17:01:38.962Z,102386.31
2022-10-17T17:04:05.539Z,102390.00
2022-10-17T17:06:32.126Z,102383.88
2022-10-17T17:08:58.696Z,102392.81
2022-10-17T17:11:28.534Z,102406.44
2022-10-17T17:13:56.989Z,102397.38
2022-10-17T17:16:25.060Z,102402.59
2022-10-17T17:18:56.795Z,102407.75
2022-10-17T17:21:23.397Z,102405.63
2022-10-17T17:23:50.330Z,102399.13
2022-10-17T17:26:19.855Z,102397.13
2022-10-17T17:28:47.158Z,102403.25
2022-10-17T17:31:16.365Z,102413.75
2022-10-17T17:33:43.610Z,102408.22
2022-10-17T17:36:13.897Z,102418.75
2022-10-17T17:38:41.265Z,102419.47
2022-10-17T17:41:07.853Z,102418.34
2022-10-17T17:43:35.730Z,102424.59
2022-10-17T17:46:02.405Z,102427.28
2022-10-17T17:48:29.183Z,102428.13
2022-10-17T17:50:55.705Z,102427.28
2022-10-17T17:53:22.412Z,102427.44
2022-10-17T17:55:48.880Z,102432.09
2022-10-17T17:58:15.408Z,102434.94
2022-10-17T18:00:42.064Z,102426.13
2022-10-17T18:03:08.585Z,102428.09
2022-10-17T18:05:35.330Z,102430.91
2022-10-17T18:08:01.777Z,102439.16
2022-10-17T18:10:29.445Z,102435.72
2022-10-17T18:12:56.043Z,102445.81
2022-10-17T18:15:23.001Z,102446.81
2022-10-17T18:17:49.592Z,102455.84
2022-10-17T18:20:16.106Z,102463.25
2022-10-17T18:22:42.606Z,102467.78
2022-10-17T18:25:09.297Z,102472.44
2022-10-17T18:27:35.783Z,102472.59
2022-10-17T18:30:02.330Z,102476.28
2022-10-17T18:32:31.339Z,102475.53
2022-10-17T18:34:58.565Z,102473.69
2022-10-17T18:37:25.220Z,102467.59
2022-10-17T18:39:54.026Z,102465.88
2022-10-17T18:42:20.839Z,102465.16
2022-10-17T18:44:48.071Z,102468.84
2022-10-17T18:47:14.547Z,102476.94
2022-10-17T18:49:41.075Z,102476.22
2022-10-17T18:52:07.597Z,102484.44
2022-10-17T18:54:34.671Z,102489.09
2022-10-17T18:57:01.457Z,102477.59
2022-10-17T18:59:28.004Z,102483.09
2022-10-17T19:01:54.562Z,102488.78
2022-10-17T19:04:21.436Z,102489.91
2022-10-17T19:06:48.008Z,102490.03
2022-10-17T19:09:15.043Z,102496.38
2022-10-17T19:11:42.793Z,102496.53
2022-10-17T19:14:14.458Z,102498.50
2022-10-17T19:16:45.225Z,102495.09
2022-10-17T19:19:17.219Z,102500.63
2022-10-17T19:21:44.309Z,102497.03
2022-10-17T19:24:16.431Z,102492.78
2022-10-17T19:26:44.600Z,102495.59
2022-10-17T19:29:16.200Z,102503.69
2022-10-17T19:31:44.926Z,102510.06
2022-10-17T19:34:12.593Z,102501.28
2022-10-17T19:36:39.576Z,102499.53
2022-10-17T19:39:10.067Z,102505.91
2022-10-17T19:41:36.673Z,102511.31
2022-10-17T19:44:03.581Z,102502.38
2022-10-17T19:46:31.040Z,102499.69
2022-10-17T19:48:57.884Z,102494.44
2022-10-17T19:51:25.301Z,102503.47
2022-10-17T19:53:53.419Z,102512.56
2022-10-17T19:56:22.222Z,102518.09
2022-10-17T19:58:49.915Z,102516.34
2022-10-17T20:01:27.566Z,102522.72
2022-10-17T20:03:54.587Z,102524.56
2022-10-17T20:06:21.972Z,102528.97
2022-10-17T20:08:48.891Z,102521.88
2022-10-17T20:11:18.674Z,102520.19
2022-10-17T20:13:45.569Z,102527.50
2022-10-17T20:16:17.652Z,102534.75
2022-10-17T20:18:44.536Z,102533.91
2022-10-17T20:21:14.792Z,102541.09
2022-10-17T20:23:42.444Z,102550.06
2022-10-17T20:29:03.911Z,102547.47
2022-10-17T20:31:30.966Z,102549.31
2022-10-17T20:33:59.016Z,102549.41
2022-10-17T20:36:25.856Z,102564.59
2022-10-17T20:38:59.109Z,102568.41
2022-10-17T20:41:26.421Z,102569.25
2022-10-17T20:43:54.760Z,102567.41
2022-10-17T20:46:35.469Z,102571.09
2022-10-17T20:49:04.457Z,102586.41
2022-10-17T20:51:30.903Z,102590.06
2022-10-17T20:56:30.476Z,102595.59
2022-10-17T20:58:59.549Z,102600.13
2022-10-17T21:01:27.008Z,102603.69
2022-10-17T21:03:53.954Z,102606.38
2022-10-17T21:06:21.272Z,102600.13
2022-10-17T21:08:48.281Z,102605.66
2022-10-17T21:11:23.200Z,102612.84
2022-10-17T21:14:04.691Z,102617.53
2022-10-17T21:16:34.664Z,102617.38
2022-10-17T21:19:02.148Z,102616.53
2022-10-17T21:21:31.105Z,102621.91
2022-10-17T21:24:00.788Z,102626.44
2022-10-17T21:26:28.087Z,102623.91
2022-10-17T21:28:55.102Z,102621.22
2022-10-17T21:31:24.938Z,102622.16
2022-10-17T21:33:54.295Z,102619.59
2022-10-17T21:36:21.781Z,102623.16
2022-10-17T21:38:50.300Z,102628.53
2022-10-17T21:41:22.077Z,102625.97
2022-10-17T21:43:52.908Z,102625.13
2022-10-17T21:46:20.080Z,102627.81
2022-10-17T21:48:48.129Z,102620.69
2022-10-17T21:51:17.804Z,102626.09
2022-10-17T21:53:44.517Z,102635.16
2022-10-17T21:56:16.626Z,102633.44
2022-10-17T21:58:43.305Z,102639.69
2022-10-17T22:01:22.865Z,102639.81
2022-10-17T22:03:51.621Z,102639.81
2022-10-17T22:09:11.809Z,102639.81
2022-10-17T22:11:38.443Z,102633.59
2022-10-17T22:14:08.028Z,102640.78
2022-10-17T22:16:35.120Z,102645.31
2022-10-17T22:19:06.185Z,102639.94
2022-10-17T22:21:34.986Z,102639.06
2022-10-17T22:24:04.017Z,102648.84
2022-10-17T22:26:32.454Z,102640.91
2022-10-17T22:28:59.364Z,102646.31
2022-10-17T22:31:26.473Z,102657.06
2022-10-17T22:33:53.353Z,102651.81
2022-10-17T22:36:19.905Z,102650.09
2022-10-17T22:38:46.449Z,102654.53
2022-10-17T22:41:12.908Z,102653.78
2022-10-17T22:43:39.383Z,102659.91
2022-10-17T22:46:07.296Z,102651.06
2022-10-17T22:48:34.277Z,102656.47
2022-10-17T22:51:02.217Z,102652.06
2022-10-17T22:53:29.953Z,102643.13
2022-10-17T22:56:01.889Z,102647.66
2022-10-17T22:58:29.900Z,102659.28
2022-10-17T23:00:56.856Z,102651.31
2022-10-17T23:03:24.292Z,102655.75
2022-10-17T23:05:51.593Z,102656.69
2022-10-17T23:08:18.867Z,102649.63
2022-10-17T23:10:46.895Z,102651.31
2022-10-17T23:13:14.223Z,102647.91
2022-10-17T23:15:41.657Z,102657.69
2022-10-17T23:18:09.680Z,102656.84
2022-10-17T23:20:37.248Z,102659.53
2022-10-17T23:23:04.248Z,102650.59
2022-10-17T23:25:30.743Z,102662.34
2022-10-17T23:27:57.261Z,102664.16
2022-10-17T23:30:23.782Z,102666.00
2022-10-17T23:32:50.265Z,102666.00
2022-10-17T23:35:16.865Z,102660.63
2022-10-17T23:37:43.344Z,102663.31
2022-10-17T23:40:10.749Z,102659.78
2022-10-17T23:42:37.194Z,102658.91
2022-10-17T23:45:04.144Z,102657.22
2022-10-17T23:47:31.308Z,102651.84
2022-10-17T23:49:58.276Z,102650.13
2022-10-17T23:52:24.852Z,102652.81
2022-10-17T23:54:51.325Z,102650.13
2022-10-17T23:57:17.770Z,102651.09
2022-10-17T23:59:44.370Z,102654.63
